Time;durP1;ratioP1;P1;durP2;ratioP2;P2;SDS_P1;SDS_P2;PMS_P1;PMS_P2;Temp;Humidity;BMP_temperature;BMP_pressure;BME280_temperature;BME280_humidity;BME280_pressure;Samples;Min_cycle;Max_cycle;Signal;HPM_P1;HPM_P2
2023/02/17 00:01:57;;;;;;;6.17;3.80;;;7.40;97.30;;;;;;5046312;28;20433;-82
2023/02/17 00:04:22;;;;;;;6.25;4.90;;;7.40;97.30;;;;;;5040342;28;20562;-82
2023/02/17 00:06:47;;;;;;;6.80;4.07;;;7.40;97.30;;;;;;5032935;28;20194;-79
2023/02/17 00:09:13;;;;;;;6.97;4.67;;;7.40;97.30;;;;;;5041563;28;20171;-79
2023/02/17 00:11:39;;;;;;;7.50;5.20;;;7.40;97.30;;;;;;5051208;28;20194;-78
2023/02/17 00:14:05;;;;;;;8.63;6.70;;;7.50;97.30;;;;;;5052380;28;20173;-82
2023/02/17 00:16:30;;;;;;;7.75;4.50;;;7.40;97.30;;;;;;5038611;28;20206;-82
2023/02/17 00:18:59;;;;;;;6.30;4.93;;;7.50;97.30;;;;;;5043569;28;20659;-79
2023/02/17 00:21:30;;;;;;;7.05;5.85;;;7.50;97.30;;;;;;5038986;28;20884;-83
2023/02/17 00:23:57;;;;;;;15.80;4.43;;;7.50;97.30;;;;;;5063516;28;20437;-82
2023/02/17 00:26:22;;;;;;;7.97;3.77;;;7.40;97.30;;;;;;5029379;28;20435;-84
2023/02/17 00:28:49;;;;;;;8.00;5.60;;;7.40;97.30;;;;;;5042198;28;20214;-83
2023/02/17 00:31:20;;;;;;;5.15;3.95;;;7.40;97.30;;;;;;5056769;28;20245;-84
2023/02/17 00:33:47;;;;;;;5.80;5.50;;;7.40;97.30;;;;;;5056287;28;20424;-79
2023/02/17 00:36:18;;;;;;;9.67;5.80;;;7.40;97.30;;;;;;5058922;28;20429;-82
2023/02/17 00:38:45;;;;;;;14.63;6.27;;;7.40;97.30;;;;;;5040691;28;20230;-80
2023/02/17 00:41:12;;;;;;;7.33;6.93;;;7.30;97.30;;;;;;5047330;28;20438;-78
2023/02/17 00:43:37;;;;;;;6.20;5.10;;;7.30;97.30;;;;;;5035343;28;20762;-85
2023/02/17 00:46:03;;;;;;;6.80;3.95;;;7.30;97.30;;;;;;5043102;28;20489;-80
2023/02/17 00:48:29;;;;;;;6.20;3.90;;;7.30;97.30;;;;;;5047095;28;20213;-83
2023/02/17 00:50:55;;;;;;;7.83;3.57;;;7.30;97.30;;;;;;5041837;28;20222;-83
2023/02/17 00:53:20;;;;;;;6.75;4.80;;;7.30;97.30;;;;;;5033286;28;20258;-78
2023/02/17 00:55:46;;;;;;;14.15;5.30;;;7.30;97.30;;;;;;5041984;28;20634;-84
2023/02/17 00:58:11;;;;;;;14.85;5.70;;;7.30;97.30;;;;;;5033816;28;20529;-80
2023/02/17 01:00:37;;;;;;;6.55;4.45;;;7.30;97.30;;;;;;5019773;28;20265;-83
2023/02/17 01:03:02;;;;;;;3.95;3.75;;;7.30;97.30;;;;;;5033803;28;20464;-80
2023/02/17 01:05:28;;;;;;;15.50;4.95;;;7.30;97.30;;;;;;5056353;28;20281;-82
2023/02/17 01:07:54;;;;;;;10.93;6.17;;;7.40;97.30;;;;;;5047484;28;20551;-79
2023/02/17 01:10:20;;;;;;;11.13;6.10;;;7.40;97.30;;;;;;5034395;28;20196;-82
2023/02/17 01:12:45;;;;;;;6.17;5.63;;;7.40;97.30;;;;;;5038052;28;20432;-79
2023/02/17 01:15:12;;;;;;;19.40;4.00;;;7.40;97.30;;;;;;5053874;28;20195;-82
2023/02/17 01:17:37;;;;;;;5.20;4.40;;;7.40;97.30;;;;;;5037274;28;20175;-80
2023/02/17 01:20:03;;;;;;;10.47;6.70;;;7.50;97.30;;;;;;5061539;28;20445;-80
2023/02/17 01:22:29;;;;;;;9.50;6.03;;;7.50;97.30;;;;;;5028698;28;20175;-86
2023/02/17 01:24:54;;;;;;;8.43;4.80;;;7.50;97.30;;;;;;5037899;28;20208;-84
2023/02/17 01:27:20;;;;;;;4.93;4.63;;;7.60;97.30;;;;;;5047940;28;20189;-82
2023/02/17 01:29:45;;;;;;;5.60;4.97;;;7.60;97.30;;;;;;5039712;28;20305;-84
2023/02/17 01:32:11;;;;;;;8.67;4.30;;;7.60;97.30;;;;;;5050477;28;20742;-84
2023/02/17 01:34:37;;;;;;;3.90;3.70;;;7.60;97.30;;;;;;5036094;28;20162;-84
2023/02/17 01:37:03;;;;;;;11.40;6.00;;;7.60;97.30;;;;;;5039075;28;20286;-84
2023/02/17 01:39:28;;;;;;;5.10;3.90;;;7.60;97.30;;;;;;5048526;28;20444;-84
2023/02/17 01:41:54;;;;;;;4.77;3.23;;;7.60;97.30;;;;;;5044778;28;20211;-83
2023/02/17 01:44:22;;;;;;;5.97;5.43;;;7.60;97.30;;;;;;5036250;28;20176;-84
2023/02/17 01:46:50;;;;;;;4.90;2.80;;;7.60;97.30;;;;;;5044022;28;20905;-84
2023/02/17 01:49:37;;;;;;;5.20;4.53;;;7.60;97.30;;;;;;5042892;28;20920;-84
2023/02/17 01:52:08;;;;;;;7.93;4.37;;;7.70;97.30;;;;;;5034858;28;20422;-85
2023/02/17 01:54:54;;;;;;;6.10;4.90;;;7.70;97.30;;;;;;5056313;28;20425;-84
2023/02/17 01:57:23;;;;;;;12.70;5.90;;;7.80;97.30;;;;;;5036542;28;20423;-87
2023/02/17 01:59:49;;;;;;;5.23;3.53;;;7.80;97.30;;;;;;5065310;28;20500;-84
2023/02/17 02:02:16;;;;;;;4.50;3.77;;;7.90;97.30;;;;;;5030056;28;20219;-85
2023/02/17 02:04:45;;;;;;;15.43;4.93;;;7.90;97.30;;;;;;5032309;28;20482;-86
2023/02/17 02:07:18;;;;;;;6.40;4.27;;;8.00;97.30;;;;;;5040188;28;20453;-82
2023/02/17 02:09:53;;;;;;;7.83;4.27;;;8.00;97.30;;;;;;5062039;28;20413;-85
2023/02/17 02:12:21;;;;;;;4.43;3.77;;;8.00;97.30;;;;;;5022764;28;20445;-85
2023/02/17 02:14:49;;;;;;;11.50;6.80;;;8.00;97.30;;;;;;5032518;28;20686;-83
2023/02/17 02:17:29;;;;;;;6.13;4.97;;;8.00;97.30;;;;;;5066222;28;20876;-84
2023/02/17 02:20:23;;;;;;;2.57;2.37;;;8.10;97.30;;;;;;5028146;28;20458;-83
2023/02/17 02:23:17;;;;;;;7.40;3.47;;;8.10;97.30;;;;;;5049737;28;20505;-84
2023/02/17 02:26:21;;;;;;;5.43;2.83;;;8.10;97.30;;;;;;5030937;28;20441;-85
2023/02/17 02:29:23;;;;;;;6.47;4.97;;;8.10;97.30;;;;;;5033704;28;20417;-83
2023/02/17 02:32:10;;;;;;;5.27;3.77;;;8.10;97.30;;;;;;5033779;28;20508;-83
2023/02/17 02:34:52;;;;;;;5.10;4.13;;;8.20;97.30;;;;;;5063371;28;20445;-83
2023/02/17 02:37:31;;;;;;;4.90;3.27;;;8.20;97.30;;;;;;5032686;28;21034;-84
2023/02/17 02:40:02;;;;;;;6.70;5.23;;;8.20;97.30;;;;;;5035819;28;20452;-84
2023/02/17 02:42:27;;;;;;;9.20;5.10;;;8.20;97.30;;;;;;5044311;28;20839;-83
2023/02/17 02:44:53;;;;;;;4.10;3.90;;;8.10;97.30;;;;;;5038507;28;20420;-84
2023/02/17 02:47:42;;;;;;;11.30;5.40;;;8.10;97.30;;;;;;5048497;28;20295;-84
2023/02/17 02:50:10;;;;;;;7.17;3.07;;;8.20;97.30;;;;;;5038404;28;20183;-85
2023/02/17 02:52:42;;;;;;;3.97;3.60;;;8.10;97.30;;;;;;5044680;28;20413;-85
2023/02/17 02:55:25;;;;;;;3.07;2.87;;;8.10;97.30;;;;;;5060120;28;20923;-83
2023/02/17 02:58:22;;;;;;;6.20;4.43;;;8.10;97.30;;;;;;5044416;28;20967;-84
2023/02/17 03:00:59;;;;;;;6.23;2.60;;;8.00;97.30;;;;;;5062735;28;20469;-84
2023/02/17 03:03:41;;;;;;;4.50;3.27;;;8.00;97.30;;;;;;5038848;28;20445;-85
2023/02/17 03:06:24;;;;;;;3.00;2.33;;;8.00;97.30;;;;;;5036775;28;20767;-84
2023/02/17 03:09:07;;;;;;;6.93;5.77;;;7.90;97.30;;;;;;5043190;28;20445;-85
2023/02/17 03:11:33;;;;;;;5.43;3.57;;;7.90;97.30;;;;;;5041914;28;20516;-84
2023/02/17 03:14:05;;;;;;;7.53;2.80;;;7.90;97.30;;;;;;5039096;28;20859;-85
2023/02/17 03:16:32;;;;;;;5.27;4.17;;;7.90;97.30;;;;;;5041553;28;20207;-84
2023/02/17 03:18:57;;;;;;;2.83;2.70;;;7.80;97.30;;;;;;5041549;28;20231;-85
2023/02/17 03:21:28;;;;;;;7.80;4.30;;;7.90;97.30;;;;;;5041822;28;20462;-83
2023/02/17 03:23:53;;;;;;;16.13;6.10;;;7.90;97.30;;;;;;5043127;28;20712;-85
2023/02/17 03:26:19;;;;;;;7.40;4.00;;;8.00;97.30;;;;;;5042520;28;20442;-84
2023/02/17 03:28:44;;;;;;;3.47;3.30;;;8.00;97.30;;;;;;5043576;28;20176;-83
2023/02/17 03:31:10;;;;;;;5.40;5.10;;;8.10;97.30;;;;;;5042330;28;20559;-86
2023/02/17 03:33:35;;;;;;;3.90;3.00;;;8.10;97.30;;;;;;5068794;28;20187;-84
2023/02/17 03:36:01;;;;;;;7.17;3.00;;;8.20;97.30;;;;;;5042671;28;20269;-82
2023/02/17 03:38:26;;;;;;;2.43;2.23;;;8.30;97.30;;;;;;5045823;28;20175;-84
2023/02/17 03:40:52;;;;;;;5.73;3.77;;;8.30;97.30;;;;;;5042963;28;20338;-80
2023/02/17 03:43:18;;;;;;;2.77;2.57;;;8.40;97.30;;;;;;5041609;28;20172;-83
2023/02/17 03:45:43;;;;;;;6.97;3.10;;;8.40;97.30;;;;;;5068937;28;20496;-85
2023/02/17 03:48:09;;;;;;;2.53;2.33;;;8.40;97.30;;;;;;5065005;28;20222;-86
2023/02/17 03:50:34;;;;;;;2.63;2.47;;;8.40;97.30;;;;;;5065624;28;20241;-82
2023/02/17 03:52:59;;;;;;;12.93;5.07;;;8.50;97.30;;;;;;5060200;28;20246;-84
2023/02/17 03:55:25;;;;;;;5.57;4.50;;;8.40;97.30;;;;;;5064709;28;20183;-84
2023/02/17 03:57:50;;;;;;;9.67;3.63;;;8.50;97.30;;;;;;5082120;28;20183;-83
2023/02/17 04:00:16;;;;;;;3.03;2.83;;;8.50;97.30;;;;;;5064601;28;20202;-86
2023/02/17 04:02:42;;;;;;;9.20;4.70;;;8.50;97.30;;;;;;5086536;28;20175;-85
2023/02/17 04:05:07;;;;;;;3.93;3.70;;;8.50;97.30;;;;;;5069857;28;20179;-84
2023/02/17 04:07:33;;;;;;;2.13;1.97;;;8.50;97.30;;;;;;5069902;28;20229;-87
2023/02/17 04:09:58;;;;;;;4.43;3.40;;;8.50;97.30;;;;;;5060812;28;20179;-83
2023/02/17 04:12:24;;;;;;;4.13;3.90;;;8.60;97.30;;;;;;5069842;28;20210;-85
2023/02/17 04:14:49;;;;;;;4.03;3.23;;;8.60;97.30;;;;;;5065042;28;20398;-83
2023/02/17 04:17:14;;;;;;;2.97;2.00;;;8.60;97.30;;;;;;5065628;28;20214;-83
2023/02/17 04:19:40;;;;;;;3.43;3.23;;;8.60;97.30;;;;;;5065407;28;20233;-83
2023/02/17 04:22:07;;;;;;;8.83;4.60;;;8.60;97.30;;;;;;5065539;28;20265;-84
2023/02/17 04:24:35;;;;;;;9.27;3.77;;;8.60;97.30;;;;;;5064462;28;20364;-83
2023/02/17 04:27:00;;;;;;;4.70;4.40;;;8.60;97.30;;;;;;5072031;28;20464;-86
2023/02/17 04:29:26;;;;;;;4.57;3.40;;;8.60;97.30;;;;;;5061095;28;20421;-83
2023/02/17 04:31:51;;;;;;;2.93;2.73;;;8.70;97.30;;;;;;5081153;28;20186;-82
2023/02/17 04:34:17;;;;;;;5.00;4.13;;;8.70;97.30;;;;;;5059180;28;20528;-85
2023/02/17 04:36:43;;;;;;;3.77;3.13;;;8.70;97.30;;;;;;5058171;28;20237;-84
2023/02/17 04:39:08;;;;;;;4.13;2.03;;;8.70;97.30;;;;;;5063307;28;20545;-84
2023/02/17 04:41:33;;;;;;;3.77;3.60;;;8.70;97.30;;;;;;5081164;28;20218;-84
2023/02/17 04:43:59;;;;;;;23.07;4.03;;;8.70;97.30;;;;;;5062641;28;20224;-84
2023/02/17 04:46:25;;;;;;;9.13;4.73;;;8.70;97.30;;;;;;5062330;28;20643;-79
2023/02/17 04:48:50;;;;;;;4.70;2.70;;;8.70;97.30;;;;;;5061152;28;20319;-84
2023/02/17 04:51:16;;;;;;;5.27;3.73;;;8.70;97.30;;;;;;5062891;28;20476;-84
2023/02/17 04:53:44;;;;;;;7.93;4.97;;;8.70;97.30;;;;;;5062261;28;20191;-84
2023/02/17 04:56:09;;;;;;;3.23;2.67;;;8.80;97.30;;;;;;5062962;28;20695;-84
2023/02/17 04:58:37;;;;;;;3.87;3.30;;;8.80;97.30;;;;;;5062326;28;20512;-84
2023/02/17 05:01:03;;;;;;;5.37;3.13;;;8.80;97.30;;;;;;5061497;28;20187;-84
2023/02/17 05:03:28;;;;;;;11.40;4.23;;;8.80;97.30;;;;;;5051943;28;20432;-85
2023/02/17 05:05:54;;;;;;;5.33;3.10;;;8.80;97.30;;;;;;5058556;28;20195;-84
2023/02/17 05:08:19;;;;;;;4.50;3.00;;;8.80;97.30;;;;;;5078535;28;20581;-84
2023/02/17 05:10:49;;;;;;;13.10;5.77;;;8.80;97.30;;;;;;5060886;28;20187;-86
2023/02/17 05:13:14;;;;;;;5.40;3.93;;;8.90;97.30;;;;;;5076056;28;20187;-84
2023/02/17 05:15:42;;;;;;;9.17;4.10;;;8.90;97.30;;;;;;5061602;28;20503;-84
2023/02/17 05:18:08;;;;;;;2.60;1.83;;;8.90;97.30;;;;;;5063688;28;20182;-84
2023/02/17 05:20:33;;;;;;;5.07;3.37;;;8.90;97.30;;;;;;5063150;28;20539;-86
2023/02/17 05:22:59;;;;;;;4.77;3.07;;;8.90;97.30;;;;;;5062790;28;20552;-84
2023/02/17 05:25:24;;;;;;;9.53;2.70;;;8.90;97.30;;;;;;5062715;28;20228;-83
2023/02/17 05:27:50;;;;;;;4.77;3.30;;;8.90;97.30;;;;;;5081472;28;20552;-85
2023/02/17 05:30:15;;;;;;;4.57;3.57;;;8.90;97.30;;;;;;5058919;28;20171;-83
2023/02/17 05:32:41;;;;;;;2.90;2.57;;;8.90;97.30;;;;;;5055144;28;20606;-84
2023/02/17 05:35:07;;;;;;;10.83;5.83;;;8.90;97.30;;;;;;5061353;28;20239;-83
2023/02/17 05:37:32;;;;;;;1.93;1.70;;;8.90;97.30;;;;;;5062170;28;20207;-84
2023/02/17 05:39:57;;;;;;;6.30;4.47;;;8.90;97.30;;;;;;5058686;28;20203;-84
2023/02/17 05:42:27;;;;;;;2.83;2.60;;;8.90;97.30;;;;;;5057118;28;20182;-83
2023/02/17 05:44:55;;;;;;;2.83;2.63;;;8.90;97.30;;;;;;5056981;28;20570;-80
2023/02/17 05:47:22;;;;;;;2.63;2.43;;;8.90;97.30;;;;;;5063399;28;20475;-86
2023/02/17 05:49:48;;;;;;;5.30;3.00;;;8.90;97.30;;;;;;5063574;28;20424;-84
2023/02/17 05:52:15;;;;;;;4.67;2.20;;;8.90;97.30;;;;;;5063885;28;20426;-84
2023/02/17 05:54:41;;;;;;;7.83;2.57;;;8.90;97.30;;;;;;5080857;28;20175;-85
2023/02/17 05:57:06;;;;;;;6.57;4.03;;;8.90;97.30;;;;;;5062345;28;20260;-84
2023/02/17 05:59:32;;;;;;;2.87;2.73;;;9.00;97.30;;;;;;5062666;28;20242;-83
2023/02/17 06:01:57;;;;;;;5.17;2.57;;;9.00;97.30;;;;;;5061199;28;20175;-84
2023/02/17 06:04:23;;;;;;;4.03;3.03;;;9.00;97.30;;;;;;5062423;28;20215;-84
2023/02/17 06:06:48;;;;;;;4.40;2.10;;;9.10;97.30;;;;;;5060562;28;20187;-84
2023/02/17 06:09:14;;;;;;;5.70;3.40;;;9.10;97.30;;;;;;5062772;28;20186;-85
2023/02/17 06:11:40;;;;;;;9.23;4.93;;;9.10;97.30;;;;;;5061908;28;20252;-83
2023/02/17 06:14:05;;;;;;;5.50;2.03;;;9.20;97.30;;;;;;5054223;28;20190;-83
2023/02/17 06:16:31;;;;;;;2.80;2.30;;;9.20;97.30;;;;;;5079833;28;20429;-83
2023/02/17 06:18:58;;;;;;;1.77;1.67;;;9.30;97.30;;;;;;5081241;28;20290;-85
2023/02/17 06:21:24;;;;;;;2.47;2.27;;;9.30;97.30;;;;;;5061302;28;20238;-85
2023/02/17 06:23:49;;;;;;;7.20;2.27;;;9.40;97.30;;;;;;5078344;28;20417;-86
2023/02/17 06:26:17;;;;;;;3.00;2.80;;;9.40;97.30;;;;;;5061188;28;20262;-84
2023/02/17 06:28:42;;;;;;;3.17;2.97;;;9.40;97.30;;;;;;5061149;28;20179;-84
2023/02/17 06:31:08;;;;;;;5.90;4.63;;;9.40;97.30;;;;;;5060176;28;20788;-86
2023/02/17 06:33:34;;;;;;;4.60;2.70;;;9.50;97.30;;;;;;5057863;28;20183;-83
2023/02/17 06:36:00;;;;;;;2.90;2.60;;;9.50;97.30;;;;;;5070498;28;20195;-84
2023/02/17 06:38:26;;;;;;;6.13;3.40;;;9.50;97.30;;;;;;5059121;28;20421;-85
2023/02/17 06:40:52;;;;;;;3.30;3.10;;;9.50;97.30;;;;;;5078265;28;20202;-85
2023/02/17 06:43:17;;;;;;;2.83;1.83;;;9.60;97.30;;;;;;5060479;28;20172;-84
2023/02/17 06:45:43;;;;;;;4.40;2.30;;;9.60;97.30;;;;;;5053030;28;20446;-84
2023/02/17 06:48:09;;;;;;;2.73;2.00;;;9.60;97.30;;;;;;5060037;28;20668;-84
2023/02/17 06:50:34;;;;;;;3.83;1.73;;;9.60;97.30;;;;;;5060022;28;20237;-84
2023/02/17 06:53:00;;;;;;;2.77;2.57;;;9.60;97.30;;;;;;5051218;28;20239;-85
2023/02/17 06:55:25;;;;;;;1.63;1.53;;;9.60;97.30;;;;;;5061108;28;20274;-84
2023/02/17 06:57:50;;;;;;;3.70;3.50;;;9.60;97.30;;;;;;5063712;28;20183;-84
2023/02/17 07:00:16;;;;;;;3.60;3.40;;;9.60;97.30;;;;;;5051820;28;20222;-85
2023/02/17 07:02:42;;;;;;;2.60;2.40;;;9.60;97.30;;;;;;5060532;28;20180;-85
2023/02/17 07:05:07;;;;;;;3.80;1.57;;;9.60;97.30;;;;;;5064046;28;20183;-84
2023/02/17 07:07:36;;;;;;;3.23;2.80;;;9.60;97.30;;;;;;5058467;28;20198;-82
2023/02/17 07:10:05;;;;;;;1.87;1.77;;;9.60;97.30;;;;;;5061470;28;20167;-85
2023/02/17 07:12:30;;;;;;;3.37;3.17;;;9.70;97.30;;;;;;5062107;28;20485;-84
2023/02/17 07:14:56;;;;;;;7.90;3.63;;;9.70;97.30;;;;;;5059983;28;20858;-84
2023/02/17 07:17:21;;;;;;;10.10;3.23;;;9.70;97.30;;;;;;5059999;28;20210;-85
2023/02/17 07:19:47;;;;;;;3.03;2.83;;;9.70;97.30;;;;;;5058132;28;20179;-85
2023/02/17 07:22:12;;;;;;;3.17;2.70;;;9.70;97.30;;;;;;5058756;28;20188;-85
2023/02/17 07:24:38;;;;;;;2.13;1.97;;;9.80;97.30;;;;;;5061161;28;20229;-84
2023/02/17 07:27:05;;;;;;;15.60;4.63;;;9.80;97.30;;;;;;5061524;28;20199;-85
2023/02/17 07:29:31;;;;;;;5.17;3.97;;;9.80;97.30;;;;;;5062964;28;20178;-84
2023/02/17 07:31:56;;;;;;;3.57;3.27;;;9.80;97.30;;;;;;5071921;28;20429;-84
2023/02/17 07:34:22;;;;;;;2.53;2.33;;;9.80;97.30;;;;;;5061755;28;20226;-85
2023/02/17 07:36:47;;;;;;;1.83;1.73;;;9.80;97.30;;;;;;5057951;28;20198;-84
2023/02/17 07:39:13;;;;;;;1.90;1.80;;;9.80;97.30;;;;;;5064908;28;20633;-85
2023/02/17 07:41:38;;;;;;;6.13;3.63;;;9.80;97.30;;;;;;5057372;28;20207;-85
2023/02/17 07:44:04;;;;;;;3.80;2.70;;;9.90;97.30;;;;;;5078927;28;20277;-84
2023/02/17 07:46:29;;;;;;;2.50;2.23;;;9.90;97.30;;;;;;5063095;28;20284;-84
2023/02/17 07:48:56;;;;;;;5.27;2.23;;;9.90;97.30;;;;;;5061928;28;20637;-84
2023/02/17 07:51:22;;;;;;;2.20;1.97;;;9.90;97.30;;;;;;5060201;28;20238;-81
2023/02/17 07:53:50;;;;;;;2.13;1.70;;;9.90;97.30;;;;;;5076835;28;20803;-80
2023/02/17 07:56:17;;;;;;;3.47;2.20;;;9.90;97.30;;;;;;5056756;28;20590;-80
2023/02/17 07:58:44;;;;;;;2.80;1.83;;;9.90;97.30;;;;;;5053789;28;20432;-83
2023/02/17 08:01:12;;;;;;;7.77;3.60;;;10.00;97.30;;;;;;5063194;28;20465;-81
2023/02/17 08:03:38;;;;;;;2.33;2.00;;;10.00;97.30;;;;;;5056513;28;20954;-84
2023/02/17 08:06:11;;;;;;;2.80;2.60;;;10.00;97.30;;;;;;5056326;28;20434;-80
2023/02/17 08:14:05;;;;;;;5.57;2.47;;;10.00;97.30;;;;;;5063691;28;20460;-83
2023/02/17 08:16:30;;;;;;;2.83;2.50;;;10.00;97.30;;;;;;5054923;28;20481;-81
2023/02/17 08:18:56;;;;;;;1.90;1.80;;;10.00;97.30;;;;;;5054153;28;20183;-80
2023/02/17 08:21:23;;;;;;;4.30;2.80;;;10.00;97.30;;;;;;5055490;28;20317;-81
2023/02/17 08:23:48;;;;;;;5.17;3.87;;;10.00;97.30;;;;;;5073531;28;20180;-84
2023/02/17 08:26:14;;;;;;;3.00;2.10;;;10.00;97.30;;;;;;5054661;28;20433;-82
2023/02/17 08:28:40;;;;;;;2.20;2.07;;;10.00;97.30;;;;;;5051583;28;20260;-79
2023/02/17 08:31:13;;;;;;;2.23;1.90;;;10.00;97.30;;;;;;5055242;28;20202;-79
2023/02/17 08:33:38;;;;;;;1.83;1.73;;;10.00;97.30;;;;;;5072606;28;20187;-83
2023/02/17 08:36:07;;;;;;;4.93;2.50;;;10.00;97.30;;;;;;5052682;28;20456;-79
2023/02/17 08:38:33;;;;;;;4.33;1.70;;;10.00;97.30;;;;;;5066984;28;20184;-81
2023/02/17 08:40:59;;;;;;;1.83;1.73;;;10.10;97.30;;;;;;5055515;28;20471;-80
2023/02/17 08:43:24;;;;;;;2.10;1.77;;;10.10;97.30;;;;;;5070813;28;20908;-81
2023/02/17 08:45:50;;;;;;;6.50;3.27;;;10.10;97.30;;;;;;5074967;28;20202;-83
2023/02/17 08:48:15;;;;;;;5.90;3.00;;;10.20;97.30;;;;;;5056680;28;20301;-79
2023/02/17 08:50:41;;;;;;;1.27;1.17;;;10.20;97.30;;;;;;5074393;28;20194;-80
2023/02/17 08:53:06;;;;;;;6.27;2.30;;;10.30;97.30;;;;;;5055507;28;20209;-84
2023/02/17 08:55:34;;;;;;;4.70;2.47;;;10.30;97.30;;;;;;5056565;28;20247;-83
2023/02/17 08:57:59;;;;;;;2.87;2.13;;;10.20;97.30;;;;;;5049916;28;20332;-79
2023/02/17 09:00:25;;;;;;;3.47;3.17;;;10.30;97.30;;;;;;5055060;28;20456;-79
2023/02/17 09:02:51;;;;;;;2.90;2.70;;;10.20;97.30;;;;;;5055516;28;20171;-84
2023/02/17 09:05:16;;;;;;;4.13;2.27;;;10.20;97.30;;;;;;5054947;28;20182;-80
2023/02/17 09:07:42;;;;;;;3.67;2.43;;;10.20;97.30;;;;;;5055213;28;20445;-80
2023/02/17 09:10:09;;;;;;;2.63;2.43;;;10.20;97.30;;;;;;5054167;28;20183;-81
2023/02/17 09:12:34;;;;;;;1.60;1.37;;;10.20;97.30;;;;;;5072604;28;20176;-81
2023/02/17 09:15:00;;;;;;;1.70;1.60;;;10.10;97.30;;;;;;5055120;28;20490;-80
2023/02/17 09:17:25;;;;;;;6.10;3.53;;;10.10;97.30;;;;;;5054897;28;20195;-84
2023/02/17 09:19:51;;;;;;;3.33;3.13;;;10.10;97.30;;;;;;5054305;28;20232;-82
2023/02/17 09:22:19;;;;;;;2.10;1.93;;;10.20;97.30;;;;;;5054601;28;20179;-83
2023/02/17 09:24:45;;;;;;;6.13;2.50;;;10.20;97.30;;;;;;5052926;28;20232;-79
2023/02/17 09:27:10;;;;;;;2.53;2.33;;;10.20;97.30;;;;;;5053069;28;20518;-81
2023/02/17 09:29:36;;;;;;;1.90;1.90;;;10.30;97.30;;;;;;5054571;28;20270;-82
2023/02/17 09:32:07;;;;;;;1.93;1.83;;;10.30;97.30;;;;;;5054446;28;20194;-79
2023/02/17 09:34:35;;;;;;;3.03;2.83;;;10.40;97.30;;;;;;5055038;28;20429;-81
2023/02/17 09:37:01;;;;;;;4.10;2.07;;;10.40;97.30;;;;;;5053873;28;20473;-79
2023/02/17 09:39:26;;;;;;;2.07;1.80;;;10.50;97.30;;;;;;5055113;28;20468;-79
2023/02/17 09:41:54;;;;;;;5.43;3.10;;;10.50;97.30;;;;;;5054592;28;20194;-81
2023/02/17 09:44:38;;;;;;;1.40;1.20;;;10.60;97.30;;;;;;5071798;28;20180;-84
2023/02/17 09:47:12;;;;;;;2.77;2.03;;;10.70;97.30;;;;;;5053232;28;20487;-83
2023/02/17 09:49:40;;;;;;;3.23;2.10;;;10.70;97.30;;;;;;5055649;28;20492;-84
2023/02/17 09:52:39;;;;;;;3.20;2.40;;;10.80;97.30;;;;;;5055808;28;20421;-82
2023/02/17 09:55:08;;;;;;;1.47;1.37;;;10.80;97.30;;;;;;5052645;28;20422;-81
2023/02/17 09:57:40;;;;;;;3.43;2.60;;;10.80;97.30;;;;;;5053700;28;20498;-80
2023/02/17 10:00:11;;;;;;;7.37;3.03;;;10.90;97.30;;;;;;5051743;28;20517;-79
2023/02/17 10:02:55;;;;;;;2.03;1.73;;;10.90;97.30;;;;;;5054572;28;20413;-81
2023/02/17 10:05:25;;;;;;;1.60;1.50;;;10.90;97.30;;;;;;5051810;28;20441;-79
2023/02/17 10:08:00;;;;;;;3.37;3.10;;;10.90;97.30;;;;;;5054535;28;20491;-84
2023/02/17 10:10:34;;;;;;;1.47;1.37;;;10.90;97.30;;;;;;5051275;28;20438;-82
2023/02/17 10:13:03;;;;;;;3.17;2.10;;;10.90;97.30;;;;;;5048715;28;20436;-79
2023/02/17 10:15:34;;;;;;;1.70;1.60;;;11.00;97.30;;;;;;5049563;28;20421;-80
2023/02/17 10:18:14;;;;;;;2.30;1.63;;;11.00;97.30;;;;;;5052503;28;20425;-79
2023/02/17 10:20:51;;;;;;;3.13;2.33;;;11.00;97.30;;;;;;5067978;28;20529;-79
2023/02/17 10:23:21;;;;;;;1.50;1.40;;;11.00;97.30;;;;;;5052013;28;20433;-79
2023/02/17 10:26:14;;;;;;;1.70;1.60;;;10.90;97.30;;;;;;5072756;28;20525;-83
2023/02/17 10:28:45;;;;;;;2.80;1.70;;;10.90;97.30;;;;;;5049715;28;20492;-79
2023/02/17 10:31:17;;;;;;;2.63;1.93;;;11.00;97.30;;;;;;5054303;28;20460;-80
2023/02/17 10:34:04;;;;;;;4.27;2.57;;;11.00;97.30;;;;;;5054929;28;20452;-80
2023/02/17 10:36:50;;;;;;;1.80;1.53;;;11.00;97.30;;;;;;5073197;28;20441;-79
2023/02/17 10:39:55;;;;;;;1.73;1.63;;;11.00;97.30;;;;;;5073442;28;20436;-81
2023/02/17 10:42:29;;;;;;;2.40;1.93;;;11.00;97.30;;;;;;5053902;28;20426;-84
2023/02/17 10:45:01;;;;;;;1.30;1.20;;;11.10;97.30;;;;;;5060579;28;20421;-81
2023/02/17 10:47:27;;;;;;;2.53;2.07;;;11.20;97.30;;;;;;5060863;28;20457;-84
2023/02/17 10:49:55;;;;;;;4.10;2.17;;;11.20;97.30;;;;;;5081651;28;20918;-85
2023/02/17 10:52:38;;;;;;;1.67;1.67;;;11.40;97.30;;;;;;5069498;28;20179;-84
2023/02/17 10:55:22;;;;;;;4.57;2.40;;;11.40;97.30;;;;;;5078798;28;20424;-83
2023/02/17 10:57:57;;;;;;;5.67;3.23;;;11.50;97.30;;;;;;5060254;28;20413;-80
2023/02/17 11:00:22;;;;;;;2.13;1.97;;;11.60;97.30;;;;;;5061400;28;21079;-83
2023/02/17 11:02:51;;;;;;;2.70;2.40;;;11.70;97.30;;;;;;5079637;28;20409;-83
2023/02/17 11:05:21;;;;;;;2.50;2.33;;;11.70;97.30;;;;;;5061130;28;20209;-80
2023/02/17 11:07:47;;;;;;;2.00;1.77;;;11.80;97.30;;;;;;5070460;28;20492;-84
2023/02/17 11:10:29;;;;;;;2.40;2.07;;;11.80;97.30;;;;;;5061291;28;20473;-83
2023/02/17 11:12:57;;;;;;;1.97;1.87;;;11.90;97.30;;;;;;5058177;28;20428;-85
2023/02/17 11:15:27;;;;;;;2.23;2.03;;;11.90;97.30;;;;;;5060867;28;20422;-83
2023/02/17 11:17:54;;;;;;;1.53;1.40;;;12.00;97.30;;;;;;5060491;28;20425;-83
2023/02/17 11:20:20;;;;;;;2.83;2.13;;;12.00;97.30;;;;;;5060581;28;20449;-86
2023/02/17 11:22:57;;;;;;;0.90;0.80;;;12.00;97.30;;;;;;5046829;28;20422;-84
2023/02/17 11:25:26;;;;;;;2.03;1.90;;;12.00;97.30;;;;;;5050545;28;20450;-86
2023/02/17 11:27:54;;;;;;;1.67;1.57;;;12.00;97.30;;;;;;5061491;28;20424;-84
2023/02/17 11:30:19;;;;;;;2.17;2.00;;;12.00;97.30;;;;;;5054658;28;20421;-83
2023/02/17 11:32:46;;;;;;;1.87;1.77;;;12.00;97.30;;;;;;5066547;28;20423;-82
2023/02/17 11:35:45;;;;;;;1.30;1.20;;;12.10;97.30;;;;;;5061987;28;20187;-84
2023/02/17 11:38:14;;;;;;;1.03;0.93;;;12.10;97.30;;;;;;5061630;28;20500;-82
2023/02/17 11:40:40;;;;;;;1.73;1.63;;;12.10;97.30;;;;;;5069132;28;20449;-81
2023/02/17 11:43:05;;;;;;;24.60;2.50;;;12.10;97.30;;;;;;5058039;28;20417;-81
2023/02/17 11:45:41;;;;;;;1.60;1.00;;;12.10;97.30;;;;;;5062140;28;20441;-84
2023/02/17 11:48:57;;;;;;;1.37;1.27;;;12.10;97.30;;;;;;5052886;28;20231;-82
2023/02/17 11:51:50;;;;;;;1.33;1.23;;;12.20;97.30;;;;;;4981788;28;20525;-83
2023/02/17 11:54:34;;;;;;;1.13;1.03;;;12.30;97.30;;;;;;4985566;28;20547;-83
2023/02/17 11:57:06;;;;;;;1.60;1.50;;;12.30;97.30;;;;;;5047528;28;20508;-84
2023/02/17 11:59:53;;;;;;;1.53;1.43;;;12.40;97.30;;;;;;5043874;28;20505;-84
2023/02/17 12:02:52;;;;;;;2.23;2.10;;;12.50;97.30;;;;;;5040431;28;21035;-84
2023/02/17 12:05:44;;;;;;;2.10;0.93;;;12.50;97.30;;;;;;5042950;28;20418;-86
2023/02/17 12:08:24;;;;;;;1.20;1.07;;;12.50;97.30;;;;;;5032572;28;20425;-86
2023/02/17 12:11:35;;;;;;;1.30;1.20;;;12.60;97.30;;;;;;5038586;28;20422;-81
2023/02/17 12:14:31;;;;;;;2.33;2.13;;;12.60;97.30;;;;;;5053027;28;20949;-82
2023/02/17 12:17:21;;;;;;;1.20;1.10;;;12.60;97.30;;;;;;5051470;28;20465;-82
2023/02/17 12:19:52;;;;;;;1.27;1.20;;;12.70;97.30;;;;;;5061282;28;20418;-83
2023/02/17 12:22:28;;;;;;;1.80;1.70;;;12.70;97.30;;;;;;5056958;28;20773;-80
2023/02/17 12:25:22;;;;;;;2.10;1.50;;;12.70;97.30;;;;;;5039050;28;20422;-82
2023/02/17 12:27:54;;;;;;;1.03;0.93;;;12.80;97.30;;;;;;5048956;28;20510;-83
2023/02/17 12:30:40;;;;;;;1.50;1.40;;;12.80;97.30;;;;;;5037058;28;20431;-83
2023/02/17 12:33:21;;;;;;;1.10;1.00;;;12.80;97.30;;;;;;5054922;28;20473;-83
2023/02/17 12:36:17;;;;;;;2.00;1.50;;;12.80;97.30;;;;;;5038050;28;20450;-81
2023/02/17 12:38:48;;;;;;;0.90;0.90;;;12.80;97.30;;;;;;5020553;28;20494;-83
2023/02/17 12:41:37;;;;;;;1.30;1.20;;;12.80;97.30;;;;;;5049646;28;20587;-82
2023/02/17 12:44:17;;;;;;;1.57;1.47;;;12.80;97.30;;;;;;5040902;28;20407;-84
2023/02/17 12:46:46;;;;;;;1.83;1.67;;;12.80;97.30;;;;;;5042201;28;20499;-83
2023/02/17 12:49:29;;;;;;;3.33;2.40;;;12.80;97.30;;;;;;5040751;28;20426;-83
2023/02/17 12:52:22;;;;;;;2.70;1.70;;;12.80;97.30;;;;;;5041219;28;20414;-84
2023/02/17 12:54:50;;;;;;;1.33;1.23;;;12.80;97.30;;;;;;5039339;28;20498;-84
2023/02/17 12:57:21;;;;;;;1.37;1.27;;;12.80;97.30;;;;;;5039761;28;20546;-80
2023/02/17 12:59:49;;;;;;;3.90;2.47;;;12.80;97.30;;;;;;5038116;28;20422;-84
2023/02/17 13:02:21;;;;;;;1.67;1.57;;;12.80;97.30;;;;;;5038063;28;20434;-82
2023/02/17 13:04:53;;;;;;;7.13;1.27;;;12.80;97.30;;;;;;5038342;28;20449;-82
2023/02/17 13:07:42;;;;;;;1.73;1.33;;;12.80;97.30;;;;;;5040253;28;20461;-82
2023/02/17 13:10:24;;;;;;;3.03;1.80;;;12.80;97.30;;;;;;5037092;28;20456;-83
2023/02/17 13:13:27;;;;;;;2.90;1.23;;;12.90;97.30;;;;;;5040381;28;20414;-82
2023/02/17 13:16:11;;;;;;;1.93;1.63;;;12.90;97.30;;;;;;5026087;28;20449;-85